Time;durP1;ratioP1;P1;durP2;ratioP2;P2;SDS_P1;SDS_P2;PMS_P1;PMS_P2;Temp;Humidity;BMP_temperature;BMP_pressure;BME280_temperature;BME280_humidity;BME280_pressure;Samples;Min_cycle;Max_cycle;Signal;HPM_P1;HPM_P2
2022/12/09 00:01:32;;;;;;;84.40;32.97;;;;;;;0.73;100.00;100636.72;4882213;29;20045;-76
2022/12/09 00:03:57;;;;;;;83.00;35.85;;;;;;;0.64;100.00;100633.47;4882155;29;20156;-75
2022/12/09 00:06:25;;;;;;;88.10;34.50;;;;;;;0.63;100.00;100629.97;4880603;29;20127;-75
2022/12/09 00:08:51;;;;;;;87.47;34.85;;;;;;;0.77;100.00;100629.63;4879756;29;20077;-74
2022/12/09 00:11:18;;;;;;;88.00;35.45;;;;;;;0.65;100.00;100628.19;4882629;29;20144;-74
2022/12/09 00:13:48;;;;;;;93.68;35.20;;;;;;;0.65;100.00;100624.69;4880378;29;20075;-73
2022/12/09 00:16:14;;;;;;;84.78;35.97;;;;;;;0.56;100.00;100624.94;4877251;29;20048;-74
2022/12/09 00:18:42;;;;;;;87.90;33.97;;;;;;;0.50;100.00;100625.94;4879824;29;20033;-75
2022/12/09 00:21:19;;;;;;;89.80;34.13;;;;;;;0.50;100.00;100633.81;4881966;29;20051;-75
2022/12/09 00:23:45;;;;;;;85.90;34.10;;;;;;;0.49;100.00;100632.97;4882020;29;20060;-74
2022/12/09 00:26:11;;;;;;;87.95;35.75;;;;;;;0.41;100.00;100626.19;4884439;29;20830;-74
2022/12/09 00:28:37;;;;;;;96.07;35.70;;;;;;;0.37;100.00;100635.91;4880811;29;20032;-75
2022/12/09 00:31:05;;;;;;;98.28;35.97;;;;;;;0.39;100.00;100634.09;4876802;29;20581;-75
2022/12/09 00:33:31;;;;;;;92.60;35.42;;;;;;;0.38;100.00;100635.00;4880640;29;20053;-73
2022/12/09 00:36:05;;;;;;;94.72;36.47;;;;;;;0.41;100.00;100634.94;4878091;29;20123;-74
2022/12/09 00:38:31;;;;;;;93.65;33.78;;;;;;;0.57;100.00;100626.66;4886524;29;20900;-73
2022/12/09 00:40:57;;;;;;;98.32;37.10;;;;;;;0.64;100.00;100634.31;4873100;29;20037;-75
2022/12/09 00:43:22;;;;;;;106.60;37.85;;;;;;;0.68;100.00;100629.88;4878493;29;20051;-74
2022/12/09 00:45:47;;;;;;;100.55;34.53;;;;;;;0.78;100.00;100634.84;4882267;29;20049;-75
2022/12/09 00:48:13;;;;;;;97.63;37.15;;;;;;;0.85;100.00;100632.88;4875832;29;20173;-75
2022/12/09 00:50:38;;;;;;;93.50;34.45;;;;;;;0.89;100.00;100638.94;4879243;29;20096;-72
2022/12/09 00:53:04;;;;;;;97.22;36.10;;;;;;;0.87;100.00;100643.38;4884733;29;20486;-75
2022/12/09 00:55:29;;;;;;;95.50;35.20;;;;;;;0.95;100.00;100631.75;4884276;29;20041;-74
2022/12/09 00:57:57;;;;;;;96.65;34.60;;;;;;;0.90;100.00;100631.00;4875048;29;20040;-74
2022/12/09 01:00:22;;;;;;;93.45;33.88;;;;;;;0.96;100.00;100630.88;4879327;29;20095;-73
2022/12/09 01:02:48;;;;;;;97.75;35.25;;;;;;;1.01;100.00;100625.50;4884733;29;20059;-74
2022/12/09 01:05:13;;;;;;;93.28;35.42;;;;;;;0.99;100.00;100632.53;4872623;29;20148;-76
2022/12/09 01:07:39;;;;;;;94.40;35.53;;;;;;;0.92;100.00;100626.59;4876113;29;20045;-75
2022/12/09 01:10:05;;;;;;;95.13;33.80;;;;;;;0.96;100.00;100627.38;4879506;29;20055;-75
2022/12/09 01:12:32;;;;;;;87.82;33.40;;;;;;;0.97;100.00;100632.56;4883858;29;20040;-74
2022/12/09 01:14:58;;;;;;;85.70;32.95;;;;;;;0.72;100.00;100631.50;4882947;29;20547;-74
2022/12/09 01:17:23;;;;;;;97.07;34.03;;;;;;;0.75;100.00;100632.31;4881302;29;20119;-76
2022/12/09 01:19:49;;;;;;;96.80;33.88;;;;;;;0.72;100.00;100629.75;4886478;29;20384;-75
2022/12/09 01:22:15;;;;;;;87.95;32.60;;;;;;;0.66;100.00;100637.78;4877402;29;20044;-75
2022/12/09 01:24:40;;;;;;;80.85;31.20;;;;;;;0.62;100.00;100635.28;4883856;29;20055;-73
2022/12/09 01:27:05;;;;;;;81.07;31.13;;;;;;;0.40;100.00;100641.09;4877182;29;20040;-74
2022/12/09 01:29:31;;;;;;;85.05;31.80;;;;;;;0.44;100.00;100632.22;4876051;29;20520;-74
2022/12/09 01:31:56;;;;;;;82.15;31.25;;;;;;;0.50;100.00;100633.81;4877920;29;20902;-75
2022/12/09 01:34:24;;;;;;;89.93;32.50;;;;;;;0.54;100.00;100634.59;4876441;29;20076;-75
2022/12/09 01:36:51;;;;;;;88.03;32.47;;;;;;;0.56;100.00;100640.69;4883678;29;20090;-73
2022/12/09 01:39:16;;;;;;;95.45;33.47;;;;;;;0.58;100.00;100644.13;4873803;29;20070;-75
2022/12/09 01:41:42;;;;;;;93.85;34.28;;;;;;;0.66;100.00;100639.56;4881939;29;20123;-75
2022/12/09 01:44:14;;;;;;;87.35;33.67;;;;;;;0.56;100.00;100636.31;4882905;29;20096;-74
2022/12/09 01:46:40;;;;;;;94.32;33.35;;;;;;;0.64;100.00;100636.94;4884806;29;20762;-74
2022/12/09 01:49:08;;;;;;;88.75;32.72;;;;;;;0.79;100.00;100646.19;4874532;29;20072;-76
2022/12/09 01:51:35;;;;;;;93.53;31.50;;;;;;;0.68;100.00;100638.59;4862268;29;20470;-74
2022/12/09 01:54:01;;;;;;;80.72;31.42;;;;;;;0.80;100.00;100649.66;4876556;29;20053;-75
2022/12/09 01:56:32;;;;;;;86.20;30.77;;;;;;;0.87;100.00;100644.22;4873489;29;20047;-74
2022/12/09 01:59:02;;;;;;;83.03;29.73;;;;;;;0.92;100.00;100646.72;4878804;29;20041;-75
2022/12/09 02:01:27;;;;;;;74.05;28.10;;;;;;;0.88;100.00;100643.31;4876274;29;20043;-74
2022/12/09 02:03:54;;;;;;;76.25;28.13;;;;;;;1.06;100.00;100644.59;4874197;29;20033;-75
2022/12/09 02:06:19;;;;;;;84.38;28.75;;;;;;;1.11;100.00;100647.09;4881653;29;20099;-74
2022/12/09 02:08:48;;;;;;;66.05;25.05;;;;;;;1.20;100.00;100644.19;4876214;29;20037;-75
2022/12/09 02:11:32;;;;;;;73.35;29.38;;;;;;;1.34;100.00;100639.41;4886538;29;20149;-75
2022/12/09 02:14:09;;;;;;;72.72;28.40;;;;;;;1.33;100.00;100639.47;4886085;29;20040;-75
2022/12/09 02:16:43;;;;;;;74.60;26.85;;;;;;;1.23;100.00;100644.97;4884581;29;20491;-74
2022/12/09 02:19:46;;;;;;;67.90;26.42;;;;;;;1.17;100.00;100645.16;4877194;29;20462;-75
2022/12/09 02:22:14;;;;;;;;;;;;;;;1.28;100.00;100648.34;4887764;29;20125;-75
2022/12/09 02:25:06;;;;;;;64.53;25.67;;;;;;;1.31;100.00;100636.91;4889309;29;19923;-75
2022/12/09 02:27:41;;;;;;;68.65;26.55;;;;;;;1.15;100.00;100631.19;4894124;29;20059;-73
2022/12/09 02:30:16;;;;;;;65.78;25.85;;;;;;;1.19;100.00;100626.72;4886492;29;20068;-74
2022/12/09 02:33:11;;;;;;;60.35;25.20;;;;;;;1.10;100.00;100626.97;4889571;29;20060;-74
2022/12/09 02:35:47;;;;;;;60.78;24.42;;;;;;;1.11;100.00;100621.69;4887673;29;20589;-74
2022/12/09 02:38:21;;;;;;;67.38;25.20;;;;;;;1.18;100.00;100628.50;4876979;29;20040;-76
2022/12/09 02:40:54;;;;;;;67.18;24.92;;;;;;;1.12;100.00;100619.94;4874709;29;20048;-75
2022/12/09 02:43:25;;;;;;;62.25;25.00;;;;;;;1.17;100.00;100618.91;4884724;29;20036;-76
2022/12/09 02:45:53;;;;;;;;;;;;;;;1.24;100.00;100615.19;4871615;29;20045;-76
2022/12/09 02:48:27;;;;;;;59.03;23.02;;;;;;;1.22;100.00;100622.25;4880133;29;19929;-75
2022/12/09 02:50:56;;;;;;;55.00;23.40;;;;;;;1.18;100.00;100628.50;4886743;29;20050;-76
2022/12/09 02:53:23;;;;;;;61.70;23.58;;;;;;;1.17;100.00;100623.28;4877772;29;20037;-74
2022/12/09 02:55:51;;;;;;;64.90;23.90;;;;;;;1.13;100.00;100619.88;4888400;29;20754;-75
2022/12/09 02:58:16;;;;;;;55.88;23.38;;;;;;;1.18;100.00;100625.88;4881853;29;20049;-76
2022/12/09 03:00:42;;;;;;;57.70;23.40;;;;;;;1.17;100.00;100625.91;4886493;29;20051;-75
2022/12/09 03:03:14;;;;;;;59.53;23.52;;;;;;;1.21;100.00;100615.28;4885217;29;20562;-75
2022/12/09 03:05:58;;;;;;;68.18;24.50;;;;;;;1.26;100.00;100620.41;4884272;29;20754;-76
2022/12/09 03:08:32;;;;;;;69.80;25.42;;;;;;;1.31;100.00;100613.25;4879556;29;20040;-73
2022/12/09 03:11:08;;;;;;;55.72;21.65;;;;;;;1.45;100.00;100616.31;4885592;29;20056;-75
2022/12/09 03:13:46;;;;;;;61.75;24.48;;;;;;;1.44;100.00;100617.22;4885501;29;20085;-74
2022/12/09 03:16:30;;;;;;;65.25;25.52;;;;;;;1.34;100.00;100604.41;4882753;29;20049;-75
2022/12/09 03:19:18;;;;;;;63.15;23.40;;;;;;;1.45;100.00;100605.81;4880736;29;20116;-76
2022/12/09 03:21:50;;;;;;;63.25;24.30;;;;;;;1.48;100.00;100603.09;4883670;29;20372;-76
2022/12/09 03:24:21;;;;;;;56.80;23.52;;;;;;;1.55;100.00;100606.38;4876658;29;20044;-74
2022/12/09 03:26:49;;;;;;;55.15;23.77;;;;;;;1.50;100.00;100603.91;4882556;29;20072;-75
2022/12/09 03:29:18;;;;;;;61.10;25.70;;;;;;;1.52;100.00;100606.50;4873668;29;20736;-75
2022/12/09 03:31:45;;;;;;;58.80;24.15;;;;;;;1.46;100.00;100606.69;4873254;29;20045;-76
2022/12/09 03:34:15;;;;;;;63.70;25.63;;;;;;;1.36;100.00;100605.25;4879285;29;20057;-75
2022/12/09 03:36:44;;;;;;;61.83;25.23;;;;;;;1.40;100.00;100601.59;4878507;29;20162;-74
2022/12/09 03:39:15;;;;;;;62.92;23.00;;;;;;;1.38;100.00;100606.06;4883644;29;20040;-74
2022/12/09 03:41:48;;;;;;;59.13;21.85;;;;;;;1.54;100.00;100597.66;4884184;29;20047;-75
2022/12/09 03:44:24;;;;;;;64.30;24.90;;;;;;;1.68;100.00;100588.50;4876748;29;20115;-74
2022/12/09 03:46:50;;;;;;;60.08;22.60;;;;;;;1.77;100.00;100590.84;4880825;29;20044;-75
2022/12/09 03:49:15;;;;;;;58.95;23.88;;;;;;;1.65;100.00;100593.84;4880453;29;20041;-74
2022/12/09 03:51:54;;;;;;;58.22;22.88;;;;;;;1.63;100.00;100591.25;4884108;29;20028;-75
2022/12/09 03:54:27;;;;;;;53.42;21.73;;;;;;;1.44;100.00;100588.31;4885498;29;20273;-76
2022/12/09 03:56:56;;;;;;;47.75;20.58;;;;;;;1.43;100.00;100589.25;4879864;29;20820;-74
2022/12/09 03:59:23;;;;;;;52.33;21.65;;;;;;;1.42;100.00;100581.41;4876137;29;20045;-74
2022/12/09 04:01:50;;;;;;;59.58;25.25;;;;;;;1.37;100.00;100580.69;4873463;29;20040;-76
2022/12/09 04:04:16;;;;;;;51.28;22.80;;;;;;;1.35;100.00;100578.09;4878644;29;20088;-75
2022/12/09 04:06:41;;;;;;;56.45;21.98;;;;;;;1.39;100.00;100582.34;4881371;29;20041;-75
2022/12/09 04:09:09;;;;;;;47.03;21.77;;;;;;;1.37;100.00;100581.56;4885080;29;20052;-75
2022/12/09 04:11:35;;;;;;;47.67;20.85;;;;;;;1.31;100.00;100575.63;4881145;29;20109;-74
2022/12/09 04:14:00;;;;;;;52.95;22.27;;;;;;;1.28;100.00;100574.78;4877793;29;20109;-74
2022/12/09 04:16:26;;;;;;;58.47;21.38;;;;;;;1.33;100.00;100566.78;4878610;29;20041;-75
2022/12/09 04:18:51;;;;;;;61.67;23.23;;;;;;;1.34;100.00;100568.50;4874047;29;20124;-75
2022/12/09 04:21:17;;;;;;;45.30;19.25;;;;;;;1.34;100.00;100568.50;4885377;29;20045;-74
2022/12/09 04:23:42;;;;;;;52.67;22.10;;;;;;;1.34;100.00;100571.13;4875428;29;20096;-74
2022/12/09 04:26:12;;;;;;;49.85;21.10;;;;;;;1.40;100.00;100573.56;4877803;29;20044;-75
2022/12/09 04:28:38;;;;;;;45.45;19.95;;;;;;;1.54;100.00;100573.16;4876692;29;20068;-75
2022/12/09 04:31:03;;;;;;;44.88;20.15;;;;;;;1.59;100.00;100571.25;4881374;29;20129;-74
2022/12/09 04:33:29;;;;;;;47.38;19.17;;;;;;;1.62;100.00;100568.53;4877500;29;20479;-74
2022/12/09 04:35:54;;;;;;;42.97;19.30;;;;;;;1.56;100.00;100568.72;4876086;29;20922;-75
2022/12/09 04:38:20;;;;;;;50.22;21.80;;;;;;;1.58;100.00;100571.28;4881193;29;20601;-74
2022/12/09 04:40:45;;;;;;;52.88;22.55;;;;;;;1.54;100.00;100576.63;4879534;29;20853;-74
2022/12/09 04:43:10;;;;;;;49.65;20.98;;;;;;;1.52;100.00;100581.09;4876411;29;20091;-74
2022/12/09 04:45:36;;;;;;;47.85;21.65;;;;;;;1.61;100.00;100582.59;4877202;29;20040;-75
2022/12/09 04:48:01;;;;;;;62.67;23.27;;;;;;;1.63;100.00;100583.38;4874111;29;20048;-75
2022/12/09 04:50:27;;;;;;;53.50;21.73;;;;;;;1.69;100.00;100584.97;4881151;29;20040;-75
2022/12/09 04:52:52;;;;;;;51.15;20.92;;;;;;;1.68;100.00;100578.84;4876311;29;20037;-74
2022/12/09 04:55:18;;;;;;;52.65;21.83;;;;;;;1.69;100.00;100579.69;4874370;29;20040;-73
2022/12/09 04:57:43;;;;;;;58.47;21.42;;;;;;;1.69;100.00;100582.31;4879281;29;20438;-74
2022/12/09 05:00:09;;;;;;;54.90;21.75;;;;;;;1.79;100.00;100576.72;4877621;29;20037;-75
2022/12/09 05:02:35;;;;;;;53.75;22.60;;;;;;;1.88;100.00;100578.22;4879082;29;20128;-75
2022/12/09 05:05:01;;;;;;;61.33;22.35;;;;;;;1.93;100.00;100581.56;4883245;29;20155;-75
2022/12/09 05:07:30;;;;;;;45.63;20.55;;;;;;;1.75;100.00;100579.50;4881688;29;20093;-74
2022/12/09 05:09:57;;;;;;;54.67;22.10;;;;;;;1.86;100.00;100573.91;4878010;29;20148;-74
2022/12/09 05:12:23;;;;;;;59.70;23.83;;;;;;;1.89;100.00;100579.94;4880457;29;20051;-76
2022/12/09 05:14:49;;;;;;;50.35;20.63;;;;;;;1.89;100.00;100568.56;4877658;29;20452;-74
2022/12/09 05:17:14;;;;;;;56.78;23.45;;;;;;;1.86;100.00;100572.16;4881077;29;20044;-75
2022/12/09 05:19:40;;;;;;;46.33;20.20;;;;;;;1.83;100.00;100574.88;4874653;29;20037;-75
2022/12/09 05:22:05;;;;;;;47.20;21.20;;;;;;;1.86;100.00;100572.16;4874722;29;20112;-76
2022/12/09 05:24:31;;;;;;;45.40;20.05;;;;;;;1.87;100.00;100575.66;4877976;29;20087;-74
2022/12/09 05:26:56;;;;;;;43.83;19.58;;;;;;;1.90;100.00;100572.91;4872495;29;20037;-73
2022/12/09 05:29:22;;;;;;;50.42;19.98;;;;;;;1.89;100.00;100573.81;4868956;29;20041;-75
2022/12/09 05:31:47;;;;;;;51.22;19.08;;;;;;;1.87;100.00;100573.03;4871845;29;20043;-74
2022/12/09 05:34:13;;;;;;;48.92;20.13;;;;;;;1.86;100.00;100571.28;4877518;29;20386;-74
2022/12/09 05:36:38;;;;;;;55.00;21.30;;;;;;;1.68;100.00;100565.69;4881461;29;20071;-74
2022/12/09 05:39:04;;;;;;;50.70;21.35;;;;;;;1.76;100.00;100568.97;4876139;29;20040;-74
2022/12/09 05:41:29;;;;;;;56.55;21.30;;;;;;;1.79;100.00;100571.47;4878896;29;20112;-75
2022/12/09 05:43:55;;;;;;;52.28;20.92;;;;;;;1.82;100.00;100567.91;4881545;29;20604;-75
2022/12/09 05:46:23;;;;;;;56.00;21.77;;;;;;;1.85;100.00;100562.53;4879409;29;20874;-75
2022/12/09 05:48:49;;;;;;;55.05;21.55;;;;;;;1.80;100.00;100572.34;4875976;29;20040;-75
2022/12/09 05:51:21;;;;;;;53.85;22.40;;;;;;;1.65;100.00;100571.03;4881105;29;20053;-77
2022/12/09 05:53:46;;;;;;;55.15;23.30;;;;;;;1.67;100.00;100571.88;4875909;29;20604;-73
2022/12/09 05:56:19;;;;;;;54.10;22.02;;;;;;;1.62;100.00;100570.31;4870594;29;20044;-77
2022/12/09 05:58:44;;;;;;;;;;;;;;;1.72;100.00;100571.72;4881837;29;20490;-76
2022/12/09 06:01:10;;;;;;;58.35;22.05;;;;;;;1.66;100.00;100562.28;4880107;29;19967;-76
2022/12/09 06:03:36;;;;;;;59.47;22.77;;;;;;;1.70;100.00;100569.13;4874827;29;20573;-73
2022/12/09 06:06:10;;;;;;;54.15;22.20;;;;;;;1.79;100.00;100581.13;4874027;29;20051;-76
2022/12/09 06:08:36;;;;;;;55.38;22.90;;;;;;;1.72;100.00;100567.34;4883892;29;20045;-75
2022/12/09 06:11:02;;;;;;;54.30;21.58;;;;;;;1.79;100.00;100560.97;4876970;29;20053;-76
2022/12/09 06:13:28;;;;;;;53.63;22.08;;;;;;;1.77;100.00;100565.41;4873803;29;20057;-75
2022/12/09 06:15:53;;;;;;;51.60;22.38;;;;;;;1.84;100.00;100559.97;4880279;29;20037;-76
2022/12/09 06:18:19;;;;;;;59.72;22.75;;;;;;;1.81;100.00;100566.19;4879963;29;20037;-73
2022/12/09 06:20:44;;;;;;;54.80;21.35;;;;;;;1.85;100.00;100564.31;4880796;29;20045;-74
2022/12/09 06:23:09;;;;;;;58.90;23.17;;;;;;;1.82;100.00;100567.91;4878849;29;20055;-74
2022/12/09 06:25:36;;;;;;;50.67;21.67;;;;;;;1.75;100.00;100569.84;4880743;29;20045;-75
2022/12/09 06:28:03;;;;;;;50.55;21.83;;;;;;;1.81;100.00;100561.78;4881621;29;20100;-75
2022/12/09 06:30:28;;;;;;;49.13;21.38;;;;;;;1.83;100.00;100561.72;4877646;29;20116;-73
2022/12/09 06:32:54;;;;;;;55.97;23.27;;;;;;;1.64;100.00;100566.69;4879700;29;20040;-74
2022/12/09 06:35:19;;;;;;;64.53;25.27;;;;;;;1.71;100.00;100564.75;4878176;29;20796;-74
2022/12/09 06:37:45;;;;;;;60.42;23.92;;;;;;;1.78;100.00;100569.75;4877434;29;20045;-75
2022/12/09 06:40:10;;;;;;;54.30;22.58;;;;;;;1.72;100.00;100564.72;4878600;29;20052;-75
2022/12/09 06:42:36;;;;;;;58.65;21.92;;;;;;;1.76;100.00;100571.59;4874403;29;20109;-75
2022/12/09 06:45:02;;;;;;;47.55;18.80;;;;;;;1.76;100.00;100568.09;4874401;29;20048;-75
2022/12/09 06:47:28;;;;;;;53.58;21.33;;;;;;;1.78;100.00;100566.28;4880421;29;20051;-75
2022/12/09 06:49:56;;;;;;;58.10;21.23;;;;;;;1.85;100.00;100562.53;4875484;29;20037;-75
2022/12/09 06:52:22;;;;;;;48.22;20.80;;;;;;;1.79;100.00;100568.00;4883557;29;20048;-74
2022/12/09 06:54:47;;;;;;;54.75;21.98;;;;;;;1.62;100.00;100565.91;4886611;29;20049;-75
2022/12/09 06:57:13;;;;;;;54.88;20.50;;;;;;;1.74;100.00;100569.91;4887652;29;20051;-75
2022/12/09 06:59:38;;;;;;;54.83;20.63;;;;;;;1.74;100.00;100568.13;4886079;29;20048;-74
2022/12/09 07:02:04;;;;;;;44.97;19.83;;;;;;;1.67;100.00;100569.25;4885995;29;20041;-75
2022/12/09 07:04:29;;;;;;;53.72;20.65;;;;;;;1.72;100.00;100571.72;4885551;29;20041;-75
2022/12/09 07:06:55;;;;;;;54.05;22.77;;;;;;;1.66;100.00;100574.56;4885084;29;20811;-73
2022/12/09 07:09:20;;;;;;;60.85;22.52;;;;;;;1.50;100.00;100574.16;4882292;29;20041;-74
2022/12/09 07:11:47;;;;;;;60.45;23.10;;;;;;;1.52;100.00;100582.84;4884691;29;20852;-75
2022/12/09 07:14:14;;;;;;;54.22;22.38;;;;;;;1.59;100.00;100578.25;4888932;29;20718;-76
2022/12/09 07:16:40;;;;;;;57.88;23.70;;;;;;;1.56;100.00;100581.88;4881113;29;20040;-74
2022/12/09 07:19:06;;;;;;;54.95;21.27;;;;;;;1.54;100.00;100576.63;4875970;29;20044;-75
2022/12/09 07:21:32;;;;;;;53.85;22.95;;;;;;;1.63;100.00;100578.13;4878706;29;20041;-76
2022/12/09 07:23:59;;;;;;;61.60;24.23;;;;;;;1.57;100.00;100586.22;4880812;29;20119;-74
2022/12/09 07:26:25;;;;;;;64.13;24.50;;;;;;;1.57;100.00;100580.09;4884298;29;20040;-76
2022/12/09 07:28:50;;;;;;;68.10;28.98;;;;;;;1.52;100.00;100588.97;4880187;29;20044;-73
2022/12/09 07:31:18;;;;;;;58.83;25.75;;;;;;;1.66;100.00;100588.56;4888261;29;20040;-75
2022/12/09 07:33:44;;;;;;;65.43;25.38;;;;;;;1.69;100.00;100588.44;4876437;29;20049;-73
2022/12/09 07:36:09;;;;;;;59.28;23.52;;;;;;;1.74;100.00;100594.41;4886224;29;20040;-74
2022/12/09 07:38:35;;;;;;;63.90;24.30;;;;;;;1.83;100.00;100589.78;4880351;29;20055;-73
2022/12/09 07:41:08;;;;;;;62.53;23.65;;;;;;;1.82;100.00;100591.56;4877962;29;20037;-75
2022/12/09 07:43:34;;;;;;;61.15;23.20;;;;;;;1.78;100.00;100589.94;4880577;29;20056;-75
2022/12/09 07:46:07;;;;;;;57.65;23.50;;;;;;;1.79;100.00;100589.88;4875005;29;20582;-76
2022/12/09 07:48:33;;;;;;;64.25;25.35;;;;;;;1.85;100.00;100596.69;4885781;29;20143;-75
2022/12/09 07:50:59;;;;;;;58.15;22.48;;;;;;;1.87;100.00;100597.53;4876173;29;20045;-75
2022/12/09 07:53:25;;;;;;;67.30;26.45;;;;;;;1.80;100.00;100599.47;4878692;29;20041;-76
2022/12/09 07:55:51;;;;;;;67.75;27.48;;;;;;;1.74;100.00;100594.41;4881980;29;20041;-75
2022/12/09 07:58:16;;;;;;;71.32;27.73;;;;;;;1.85;100.00;100586.19;4884294;29;20049;-75
2022/12/09 08:00:42;;;;;;;66.65;24.92;;;;;;;1.88;100.00;100588.72;4882344;29;20037;-76
2022/12/09 08:03:08;;;;;;;71.47;27.35;;;;;;;1.89;100.00;100595.69;4883341;29;20037;-76
2022/12/09 08:05:34;;;;;;;80.28;29.67;;;;;;;1.93;100.00;100593.84;4883571;29;20976;-76
2022/12/09 08:07:59;;;;;;;80.88;29.20;;;;;;;1.94;100.00;100587.66;4884931;29;20041;-75
2022/12/09 08:10:25;;;;;;;90.03;31.85;;;;;;;2.01;100.00;100591.84;4883033;29;20068;-75
2022/12/09 08:12:50;;;;;;;85.32;30.98;;;;;;;1.95;100.00;100592.00;4880439;29;20148;-75
2022/12/09 08:15:18;;;;;;;80.18;29.50;;;;;;;2.05;100.00;100593.44;4880752;29;20045;-75
2022/12/09 08:17:44;;;;;;;79.60;29.60;;;;;;;2.03;100.00;100596.13;4877216;29;20100;-75
2022/12/09 08:20:10;;;;;;;83.38;29.90;;;;;;;2.06;100.00;100603.06;4879151;29;20079;-73
2022/12/09 08:22:36;;;;;;;81.00;29.45;;;;;;;2.11;100.00;100601.16;4877779;29;20133;-75
2022/12/09 08:25:02;;;;;;;81.65;28.77;;;;;;;2.05;100.00;100603.97;4878538;29;20056;-75
2022/12/09 08:27:28;;;;;;;83.20;28.80;;;;;;;2.04;100.00;100604.88;4876233;29;20089;-75
2022/12/09 08:29:54;;;;;;;69.47;27.13;;;;;;;2.05;100.00;100601.31;4875424;29;20495;-74
2022/12/09 08:32:19;;;;;;;69.03;25.70;;;;;;;2.21;100.00;100606.94;4884394;29;20573;-74
2022/12/09 08:34:45;;;;;;;68.15;27.48;;;;;;;2.23;100.00;100606.00;4878570;29;20032;-74
2022/12/09 08:37:10;;;;;;;69.30;26.85;;;;;;;2.23;100.00;100610.41;4881182;29;20048;-74
2022/12/09 08:39:36;;;;;;;61.55;25.05;;;;;;;2.09;100.00;100605.59;4882614;29;20470;-74
2022/12/09 08:42:01;;;;;;;56.25;19.83;;;;;;;1.91;100.00;100598.28;4881855;29;20089;-74
2022/12/09 08:44:26;;;;;;;44.05;18.92;;;;;;;1.89;100.00;100606.22;4880995;29;20561;-75
2022/12/09 08:46:52;;;;;;;48.30;18.63;;;;;;;2.21;100.00;100605.22;4890486;29;20081;-74
2022/12/09 08:49:20;;;;;;;60.70;22.35;;;;;;;2.24;100.00;100606.84;4883994;29;20041;-75
2022/12/09 08:51:50;;;;;;;51.03;20.05;;;;;;;2.30;100.00;100604.88;4878650;29;20119;-75
2022/12/09 08:54:16;;;;;;;49.95;20.17;;;;;;;2.19;100.00;100606.16;4881553;29;20036;-75
2022/12/09 08:56:50;;;;;;;50.47;18.70;;;;;;;2.26;100.00;100611.19;4882897;29;20371;-75
2022/12/09 08:59:16;;;;;;;49.60;19.23;;;;;;;2.29;100.00;100607.56;4871716;29;20047;-74
2022/12/09 09:01:41;;;;;;;55.08;21.17;;;;;;;2.38;100.00;100609.91;4881811;29;20055;-75
2022/12/09 09:04:11;;;;;;;45.25;19.23;;;;;;;2.49;100.00;100609.53;4877218;29;20048;-75
2022/12/09 09:06:40;;;;;;;48.22;18.88;;;;;;;2.53;100.00;100605.88;4884361;29;20112;-74
2022/12/09 09:09:07;;;;;;;49.55;19.48;;;;;;;2.58;100.00;100607.44;4888513;29;20074;-75
2022/12/09 09:11:33;;;;;;;43.65;19.00;;;;;;;2.51;100.00;100610.31;4873701;29;20549;-75
2022/12/09 09:14:01;;;;;;;49.63;20.20;;;;;;;2.49;100.00;100613.03;4879397;29;20038;-75
2022/12/09 09:16:26;;;;;;;54.78;22.02;;;;;;;2.30;100.00;100617.16;4876161;29;20048;-76
2022/12/09 09:18:52;;;;;;;58.45;22.65;;;;;;;2.16;100.00;100620.28;4877149;29;20044;-76
2022/12/09 09:21:21;;;;;;;47.72;19.85;;;;;;;2.21;100.00;100614.84;4875995;29;20799;-74
2022/12/09 09:23:47;;;;;;;50.45;20.08;;;;;;;2.29;100.00;100620.72;4878062;29;20040;-75
2022/12/09 09:26:19;;;;;;;55.83;20.88;;;;;;;2.43;100.00;100620.28;4881752;29;20063;-75
2022/12/09 09:28:45;;;;;;;53.25;20.88;;;;;;;2.33;100.00;100622.34;4878711;29;20493;-75
2022/12/09 09:31:14;;;;;;;58.42;21.58;;;;;;;2.31;100.00;100627.66;4878442;29;20159;-75
2022/12/09 09:33:42;;;;;;;53.35;21.27;;;;;;;2.39;100.00;100632.66;4883914;29;20032;-76
2022/12/09 09:36:13;;;;;;;54.85;21.20;;;;;;;2.44;100.00;100625.47;4870503;29;20040;-76
2022/12/09 09:38:38;;;;;;;56.78;23.10;;;;;;;2.44;100.00;100625.47;4873380;29;20454;-75
2022/12/09 09:41:21;;;;;;;47.92;20.05;;;;;;;2.24;100.00;100626.13;4878449;29;20033;-74
2022/12/09 09:43:47;;;;;;;52.72;21.05;;;;;;;2.40;100.00;100630.88;4874615;29;20566;-75
2022/12/09 09:46:26;;;;;;;52.70;20.25;;;;;;;2.42;100.00;100631.72;4878532;29;20044;-76
2022/12/09 09:48:53;;;;;;;46.15;19.35;;;;;;;2.45;100.00;100629.81;4879193;29;20052;-76
2022/12/09 09:51:19;;;;;;;49.67;20.30;;;;;;;2.55;100.00;100625.97;4872780;29;20033;-75
2022/12/09 09:53:49;;;;;;;49.25;20.75;;;;;;;2.55;100.00;100625.09;4879949;29;20848;-75
2022/12/09 09:56:44;;;;;;;51.45;21.58;;;;;;;2.48;100.00;100631.50;4877535;29;20148;-75
2022/12/09 09:59:38;;;;;;;48.45;20.17;;;;;;;2.59;100.00;100621.47;4877136;29;20040;-75
2022/12/09 10:02:14;;;;;;;48.20;20.80;;;;;;;2.69;100.00;100624.66;4885310;29;20072;-74
2022/12/09 10:05:00;;;;;;;49.35;19.10;;;;;;;2.70;100.00;100619.31;4879126;29;20041;-74
2022/12/09 10:07:46;;;;;;;44.30;18.33;;;;;;;2.82;100.00;100608.38;4878857;29;20068;-74
2022/12/09 10:10:27;;;;;;;48.78;19.10;;;;;;;2.98;100.00;100611.31;4878079;29;20076;-74
2022/12/09 10:13:25;;;;;;;46.55;19.27;;;;;;;2.74;100.00;100607.78;4882163;29;20582;-74
2022/12/09 10:16:13;;;;;;;46.85;18.00;;;;;;;2.84;100.00;100603.91;4865190;29;20099;-75
2022/12/09 10:19:16;;;;;;;44.65;18.08;;;;;;;2.98;100.00;100606.06;4881208;29;20041;-76
2022/12/09 10:21:44;;;;;;;41.28;18.10;;;;;;;2.45;100.00;100607.91;4877983;29;20139;-74
2022/12/09 10:24:15;;;;;;;45.97;19.08;;;;;;;2.50;100.00;100613.88;4878145;29;20053;-74
2022/12/09 10:26:41;;;;;;;48.25;19.17;;;;;;;2.55;100.00;100609.31;4881961;29;20383;-74
2022/12/09 10:29:18;;;;;;;45.13;20.23;;;;;;;2.59;100.00;100611.78;4877695;29;20088;-74
2022/12/09 10:31:44;;;;;;;49.10;20.50;;;;;;;2.69;100.00;100609.72;4879096;29;20040;-75
2022/12/09 10:34:12;;;;;;;59.10;21.05;;;;;;;2.85;100.00;100607.41;4882324;29;20048;-76
2022/12/09 10:36:42;;;;;;;50.70;19.73;;;;;;;2.75;100.00;100606.00;4885889;29;20124;-74
2022/12/09 10:39:14;;;;;;;51.70;20.35;;;;;;;2.79;100.00;100611.09;4879907;29;20037;-76
2022/12/09 10:44:30;;;;;;;53.00;20.83;;;;;;;2.65;100.00;100601.97;4889943;29;20033;-77
2022/12/09 10:47:18;;;;;;;49.03;21.17;;;;;;;2.60;100.00;100612.66;4879229;29;20072;-73
2022/12/09 10:49:46;;;;;;;55.28;23.13;;;;;;;2.34;100.00;100610.91;4878889;29;20492;-76
2022/12/09 10:52:20;;;;;;;53.55;21.55;;;;;;;2.47;100.00;100603.47;4881727;29;20037;-75
2022/12/09 10:54:46;;;;;;;61.63;21.67;;;;;;;2.64;100.00;100597.63;4875201;29;20521;-73
2022/12/09 10:57:15;;;;;;;51.85;20.50;;;;;;;2.72;100.00;100600.84;4888209;29;20475;-76
2022/12/09 10:59:54;;;;;;;54.30;23.17;;;;;;;2.54;100.00;100595.31;4882540;29;20044;-74
2022/12/09 11:02:20;;;;;;;56.35;22.25;;;;;;;2.54;100.00;100603.19;4892891;29;20076;-75
2022/12/09 11:04:46;;;;;;;64.75;21.38;;;;;;;2.84;100.00;100597.78;4885320;29;20136;-76
2022/12/09 11:07:11;;;;;;;49.83;21.10;;;;;;;2.75;100.00;100598.97;4890373;29;20036;-76
2022/12/09 11:09:41;;;;;;;50.60;20.08;;;;;;;2.60;100.00;100594.22;4883054;29;20052;-76
2022/12/09 11:12:27;;;;;;;49.80;22.02;;;;;;;2.78;100.00;100587.47;4874769;29;20041;-75
2022/12/09 11:14:55;;;;;;;47.88;19.45;;;;;;;2.56;100.00;100600.50;4885199;29;20798;-76
2022/12/09 11:17:24;;;;;;;50.03;20.45;;;;;;;2.65;100.00;100605.47;4873562;29;20049;-76
2022/12/09 11:20:06;;;;;;;52.78;20.90;;;;;;;2.51;100.00;100597.16;4887226;29;20398;-76